Time;durP1;ratioP1;P1;durP2;ratioP2;P2;SDS_P1;SDS_P2;PMS_P1;PMS_P2;Temp;Humidity;BMP_temperature;BMP_pressure;BME280_temperature;BME280_humidity;BME280_pressure;Samples;Min_cycle;Max_cycle;Signal;HPM_P1;HPM_P2
2022/12/30 00:01:14;;;;;;;17.88;14.70;;;6.50;99.90;;;;;;5001438;28;20569;-77
2022/12/30 00:03:41;;;;;;;29.63;14.98;;;6.60;99.90;;;;;;4992352;28;20060;-77
2022/12/30 00:06:14;;;;;;;23.25;14.48;;;6.60;99.90;;;;;;4993240;28;20041;-77
2022/12/30 00:08:45;;;;;;;14.60;13.30;;;6.60;99.90;;;;;;4996151;28;20066;-77
2022/12/30 00:11:30;;;;;;;16.40;14.68;;;6.70;99.90;;;;;;4997442;28;20054;-76
2022/12/30 00:33:06;;;;;;;15.48;14.10;;;6.70;99.90;;;;;;4997003;28;20426;-76
2022/12/30 00:35:21;;;;;;;;;;;6.80;99.90;;;;;;5002451;28;20042;-76
2022/12/30 00:37:47;;;;;;;20.02;12.50;;;6.80;99.90;;;;;;5000860;28;19921;-76
2022/12/30 00:40:21;;;;;;;13.05;11.90;;;6.70;99.90;;;;;;5028668;23;20458;-76
2022/12/30 00:45:34;;;;;;;15.80;13.68;;;6.70;99.90;;;;;;5002388;28;20049;-76
2022/12/30 00:56:17;;;;;;;14.23;12.13;;;6.80;99.90;;;;;;5001637;28;19927;-77
2022/12/30 00:58:43;;;;;;;14.73;12.98;;;6.80;99.90;;;;;;5011436;23;20038;-71
2022/12/30 01:01:10;;;;;;;24.00;13.85;;;6.80;99.90;;;;;;4986136;28;20137;-72
2022/12/30 01:03:37;;;;;;;16.73;14.02;;;6.80;99.90;;;;;;4979298;28;20104;-70
2022/12/30 01:06:06;;;;;;;15.25;13.77;;;6.80;99.90;;;;;;4984159;28;20384;-72
2022/12/30 01:08:33;;;;;;;17.00;13.80;;;6.80;99.90;;;;;;4978529;28;20061;-71
2022/12/30 01:11:05;;;;;;;16.55;12.88;;;6.80;99.90;;;;;;4981572;28;20045;-70
2022/12/30 01:13:32;;;;;;;25.17;14.25;;;6.80;99.90;;;;;;4978138;28;20491;-70
2022/12/30 01:16:09;;;;;;;18.42;13.10;;;6.80;99.90;;;;;;4981903;28;20140;-70
2022/12/30 01:18:36;;;;;;;17.17;13.20;;;6.80;99.90;;;;;;4977408;28;20076;-69
2022/12/30 01:21:04;;;;;;;17.45;13.52;;;6.80;99.90;;;;;;4975753;28;20049;-71
2022/12/30 01:23:32;;;;;;;14.18;12.70;;;6.70;99.90;;;;;;5003798;28;20046;-70
2022/12/30 01:26:06;;;;;;;14.50;13.07;;;6.80;99.90;;;;;;4983049;28;20042;-71
2022/12/30 01:28:37;;;;;;;17.80;13.43;;;6.80;99.90;;;;;;4978029;28;20038;-71
2022/12/30 01:31:10;;;;;;;21.48;13.90;;;6.80;99.90;;;;;;4974038;28;20404;-70
2022/12/30 01:33:37;;;;;;;14.32;13.00;;;6.70;99.90;;;;;;4968753;28;20551;-71
2022/12/30 01:36:05;;;;;;;14.80;13.05;;;6.70;99.90;;;;;;4978134;28;20046;-70
2022/12/30 01:38:32;;;;;;;18.38;14.23;;;6.70;99.90;;;;;;4978794;28;20539;-70
2022/12/30 01:40:59;;;;;;;16.48;13.70;;;6.70;99.90;;;;;;4979902;28;20208;-71
2022/12/30 01:43:46;;;;;;;20.17;13.45;;;6.70;99.90;;;;;;4978076;28;20828;-71
2022/12/30 01:46:21;;;;;;;17.77;12.70;;;6.70;99.90;;;;;;4979325;28;20061;-70
2022/12/30 01:48:50;;;;;;;21.80;13.68;;;6.70;99.90;;;;;;4967890;28;20041;-70
2022/12/30 01:51:26;;;;;;;16.75;14.20;;;6.70;99.90;;;;;;4972677;28;20113;-70
2022/12/30 01:53:56;;;;;;;21.92;14.70;;;6.60;99.90;;;;;;4973795;28;20061;-70
2022/12/30 01:56:32;;;;;;;15.75;13.15;;;6.60;99.90;;;;;;4983927;28;20529;-70
2022/12/30 01:59:03;;;;;;;20.23;13.82;;;6.60;99.90;;;;;;4977339;28;20082;-70
2022/12/30 02:01:33;;;;;;;15.80;14.10;;;6.60;99.90;;;;;;4967248;28;20221;-70
2022/12/30 02:04:20;;;;;;;17.95;14.13;;;6.70;99.90;;;;;;4981836;28;20251;-70
2022/12/30 02:07:25;;;;;;;24.08;13.65;;;6.60;99.90;;;;;;4975259;28;20694;-70
2022/12/30 02:09:54;;;;;;;13.90;12.52;;;6.60;99.90;;;;;;4989206;28;20157;-70
2022/12/30 02:12:21;;;;;;;15.75;13.23;;;6.70;99.90;;;;;;4977322;28;20045;-69
2022/12/30 02:14:48;;;;;;;21.33;13.35;;;6.70;99.90;;;;;;4969544;28;20398;-70
2022/12/30 02:17:41;;;;;;;16.98;13.05;;;6.70;99.90;;;;;;4973936;28;20138;-69
2022/12/30 02:20:17;;;;;;;15.02;13.32;;;6.70;99.90;;;;;;4976585;28;20052;-69
2022/12/30 02:22:48;;;;;;;22.05;14.07;;;6.70;99.90;;;;;;4971154;28;20464;-69
2022/12/30 02:25:36;;;;;;;18.42;13.38;;;6.70;99.90;;;;;;4974748;28;20046;-70
2022/12/30 02:28:40;;;;;;;17.23;13.75;;;6.70;99.90;;;;;;4979424;28;20052;-69
2022/12/30 02:31:17;;;;;;;23.75;13.38;;;6.70;99.90;;;;;;4973756;28;20033;-68
2022/12/30 02:34:07;;;;;;;20.75;13.50;;;6.60;99.90;;;;;;4971919;28;20042;-69
2022/12/30 02:37:05;;;;;;;21.35;13.45;;;6.60;99.90;;;;;;4970224;28;20472;-68
2022/12/30 02:39:50;;;;;;;16.67;13.05;;;6.60;99.90;;;;;;4974345;28;20125;-69
2022/12/30 02:45:26;;;;;;;17.30;13.50;;;6.50;99.90;;;;;;4994529;28;20096;-69
2022/12/30 02:48:17;;;;;;;17.90;13.20;;;6.50;99.90;;;;;;4961877;28;20133;-70
2022/12/30 02:53:35;;;;;;;29.33;13.88;;;6.50;99.90;;;;;;4973558;28;20112;-69
2022/12/30 02:56:03;;;;;;;14.50;12.38;;;6.40;99.90;;;;;;5009313;28;20034;-69
2022/12/30 02:58:33;;;;;;;14.10;12.57;;;6.40;99.90;;;;;;4972751;28;20430;-69
2022/12/30 03:04:01;;;;;;;16.65;13.65;;;6.50;99.90;;;;;;5005165;23;20045;-73
2022/12/30 03:06:46;;;;;;;27.17;13.20;;;6.40;99.90;;;;;;5006505;28;20061;-72
2022/12/30 03:09:42;;;;;;;17.33;12.90;;;6.40;99.90;;;;;;5010755;28;20042;-72
2022/12/30 03:12:19;;;;;;;19.40;12.82;;;6.40;99.90;;;;;;4994446;28;20412;-72
2022/12/30 03:14:58;;;;;;;18.27;12.68;;;6.30;99.90;;;;;;4971767;28;20526;-73
2022/12/30 03:17:34;;;;;;;21.23;12.30;;;6.20;99.90;;;;;;4975823;28;20068;-72
2022/12/30 03:20:08;;;;;;;18.08;12.48;;;6.10;99.90;;;;;;4973510;28;20151;-72
2022/12/30 03:28:12;;;;;;;18.40;12.98;;;6.00;99.90;;;;;;4971921;28;20380;-71
2022/12/30 03:30:46;;;;;;;21.67;11.60;;;6.00;99.90;;;;;;4999273;28;20427;-72
2022/12/30 03:33:13;;;;;;;13.95;11.88;;;5.90;99.90;;;;;;4979046;28;20408;-72
2022/12/30 03:35:49;;;;;;;17.92;12.98;;;5.90;99.90;;;;;;4979638;28;20411;-72
2022/12/30 03:38:19;;;;;;;23.42;12.73;;;5.80;99.90;;;;;;4980633;28;20759;-74
2022/12/30 03:40:49;;;;;;;18.48;12.32;;;5.80;99.90;;;;;;4976371;28;20611;-74
2022/12/30 03:43:16;;;;;;;22.67;12.25;;;5.80;99.90;;;;;;4980468;28;20450;-75
2022/12/30 03:45:43;;;;;;;14.68;11.35;;;5.80;99.90;;;;;;4978197;28;20042;-74
2022/12/30 03:48:09;;;;;;;20.02;11.80;;;5.70;99.90;;;;;;4981669;28;20061;-74
2022/12/30 03:50:36;;;;;;;25.33;11.75;;;5.80;99.90;;;;;;4977542;28;20045;-74
2022/12/30 03:53:02;;;;;;;14.43;12.15;;;5.70;99.90;;;;;;4979417;28;20291;-74
2022/12/30 03:55:29;;;;;;;18.48;11.73;;;5.80;99.90;;;;;;4980035;28;20073;-74
2022/12/30 03:57:56;;;;;;;17.27;11.98;;;5.80;99.90;;;;;;4983240;28;20049;-72
2022/12/30 04:00:22;;;;;;;19.98;12.05;;;5.80;99.90;;;;;;4981254;28;20042;-71
2022/12/30 04:02:49;;;;;;;14.00;12.38;;;5.80;99.90;;;;;;4976933;28;20513;-74
2022/12/30 04:05:17;;;;;;;19.30;11.90;;;5.90;99.90;;;;;;4981403;28;20030;-72
2022/12/30 04:07:43;;;;;;;17.35;11.68;;;5.90;99.90;;;;;;4977226;28;20381;-72
2022/12/30 04:10:10;;;;;;;24.05;12.20;;;5.90;99.90;;;;;;4979708;28;20042;-71
2022/12/30 04:12:36;;;;;;;15.35;10.93;;;5.90;99.90;;;;;;4979201;28;20056;-71
2022/12/30 04:15:04;;;;;;;22.73;12.02;;;5.90;99.90;;;;;;4980824;28;20051;-72
2022/12/30 04:17:30;;;;;;;19.98;11.63;;;5.90;99.90;;;;;;4977303;28;20048;-72
2022/12/30 04:19:57;;;;;;;20.23;11.38;;;5.90;99.90;;;;;;4981179;28;20129;-72
2022/12/30 04:22:24;;;;;;;21.02;12.70;;;5.90;99.90;;;;;;4979228;28;20092;-71
2022/12/30 04:24:50;;;;;;;28.50;12.60;;;5.90;99.90;;;;;;4978532;28;20435;-71
2022/12/30 04:27:23;;;;;;;16.13;11.85;;;5.90;99.90;;;;;;4979773;28;20098;-72
2022/12/30 04:29:50;;;;;;;18.85;12.57;;;5.90;99.90;;;;;;4976000;28;20441;-72
2022/12/30 04:32:17;;;;;;;15.23;12.55;;;5.90;99.90;;;;;;4980510;28;20492;-72
2022/12/30 04:34:43;;;;;;;18.27;12.98;;;5.90;99.90;;;;;;4975752;28;20534;-72
2022/12/30 04:37:10;;;;;;;20.15;13.05;;;6.00;99.90;;;;;;4981422;28;20306;-71
2022/12/30 04:39:36;;;;;;;24.65;13.48;;;6.00;99.90;;;;;;4977355;28;20053;-71
2022/12/30 04:42:03;;;;;;;20.33;13.35;;;5.90;99.90;;;;;;4978176;28;20046;-72
2022/12/30 04:44:30;;;;;;;25.48;13.25;;;6.00;99.90;;;;;;4972997;28;20133;-72
2022/12/30 04:46:57;;;;;;;19.55;12.40;;;5.90;99.90;;;;;;4960628;28;20046;-71
2022/12/30 04:49:23;;;;;;;19.60;13.55;;;5.90;99.90;;;;;;4976979;28;20478;-72
2022/12/30 04:51:51;;;;;;;18.52;13.32;;;5.90;99.90;;;;;;4971758;28;20137;-72
2022/12/30 04:54:17;;;;;;;20.25;12.88;;;5.80;99.90;;;;;;4978291;28;20041;-73
2022/12/30 04:56:44;;;;;;;23.70;13.18;;;5.90;99.90;;;;;;4974367;28;20038;-72
2022/12/30 04:59:10;;;;;;;16.15;13.20;;;5.80;99.90;;;;;;4976047;28;20034;-72
2022/12/30 05:01:37;;;;;;;21.17;12.88;;;5.80;99.90;;;;;;4956662;28;20062;-71
2022/12/30 05:04:04;;;;;;;17.67;12.55;;;5.80;99.90;;;;;;4974980;28;20464;-72
2022/12/30 05:06:31;;;;;;;17.73;12.48;;;5.80;99.90;;;;;;4959016;28;20158;-72
2022/12/30 05:08:57;;;;;;;25.77;13.05;;;5.70;99.90;;;;;;4976089;28;20060;-74
2022/12/30 05:11:24;;;;;;;23.00;13.63;;;5.70;99.90;;;;;;4975251;28;20050;-74
2022/12/30 05:13:51;;;;;;;16.60;13.13;;;5.70;99.90;;;;;;4974166;28;20038;-74
2022/12/30 05:16:17;;;;;;;23.58;14.30;;;5.70;99.90;;;;;;4991004;28;20077;-74
2022/12/30 05:18:44;;;;;;;15.63;12.98;;;5.70;99.90;;;;;;4973952;28;20154;-74
2022/12/30 05:21:11;;;;;;;20.25;14.60;;;5.70;99.90;;;;;;4975134;28;20485;-74
2022/12/30 05:26:23;;;;;;;20.15;13.70;;;5.70;99.90;;;;;;4976379;28;20046;-74
2022/12/30 05:28:50;;;;;;;18.15;13.40;;;5.70;99.90;;;;;;4972988;28;20060;-74
2022/12/30 05:31:18;;;;;;;17.77;13.45;;;5.60;99.90;;;;;;4975122;28;20401;-74
2022/12/30 05:33:46;;;;;;;21.15;14.00;;;5.60;99.90;;;;;;4974218;28;20046;-74
2022/12/30 05:36:13;;;;;;;24.52;13.65;;;5.50;99.90;;;;;;4974930;28;20042;-74
2022/12/30 05:38:40;;;;;;;21.40;12.63;;;5.40;99.90;;;;;;4975548;28;20491;-74
2022/12/30 05:41:08;;;;;;;18.27;13.35;;;5.40;99.90;;;;;;4974544;28;20053;-74
2022/12/30 05:43:45;;;;;;;20.63;12.88;;;5.30;99.90;;;;;;4973539;28;20042;-73
2022/12/30 05:46:11;;;;;;;19.48;12.45;;;5.40;99.90;;;;;;4959375;28;20046;-74
2022/12/30 05:48:39;;;;;;;22.75;13.48;;;5.30;99.90;;;;;;4972351;28;20042;-74
2022/12/30 05:51:05;;;;;;;18.08;13.07;;;5.30;99.90;;;;;;4974163;28;20092;-73
2022/12/30 05:53:32;;;;;;;19.48;13.13;;;5.30;99.90;;;;;;4971801;28;20050;-74
2022/12/30 05:55:59;;;;;;;17.85;14.48;;;5.40;99.90;;;;;;4970991;28;20508;-74
2022/12/30 05:58:26;;;;;;;19.58;13.43;;;5.40;99.90;;;;;;4965489;28;20133;-74
2022/12/30 06:00:55;;;;;;;18.75;14.15;;;5.40;99.90;;;;;;5003406;28;20408;-74
2022/12/30 06:03:22;;;;;;;20.08;14.48;;;5.40;99.90;;;;;;4974701;28;20038;-74
2022/12/30 06:05:56;;;;;;;21.55;14.23;;;5.30;99.90;;;;;;4971764;28;20426;-74
2022/12/30 06:08:22;;;;;;;19.17;13.50;;;5.30;99.90;;;;;;4974369;28;20046;-73
2022/12/30 06:10:49;;;;;;;15.32;13.77;;;5.30;99.90;;;;;;4969237;28;20050;-73
2022/12/30 06:13:16;;;;;;;14.23;12.77;;;5.30;99.90;;;;;;4973801;28;20129;-73
2022/12/30 06:15:42;;;;;;;22.52;13.90;;;5.30;99.90;;;;;;4973575;28;20046;-73
2022/12/30 06:18:09;;;;;;;18.83;14.32;;;5.30;99.90;;;;;;4975521;28;20519;-75
2022/12/30 06:20:36;;;;;;;21.58;12.40;;;5.20;99.90;;;;;;4969085;28;20392;-74
2022/12/30 06:23:03;;;;;;;19.08;12.43;;;5.20;99.90;;;;;;4974422;28;20085;-74
2022/12/30 06:25:32;;;;;;;19.25;13.25;;;5.20;99.90;;;;;;4970472;28;20062;-74
2022/12/30 06:27:59;;;;;;;24.27;13.60;;;5.10;99.90;;;;;;4975430;28;20065;-74
2022/12/30 06:30:25;;;;;;;20.50;13.07;;;5.10;99.90;;;;;;4989814;28;20231;-74
2022/12/30 06:32:58;;;;;;;19.70;12.88;;;5.10;99.90;;;;;;4985728;28;20520;-74
2022/12/30 06:35:25;;;;;;;15.57;12.65;;;5.10;99.90;;;;;;4971391;28;20046;-74
2022/12/30 06:37:52;;;;;;;16.40;13.27;;;5.00;99.90;;;;;;4974961;28;20058;-74
2022/12/30 06:40:19;;;;;;;15.00;11.88;;;5.00;99.90;;;;;;4987864;28;20176;-74
2022/12/30 06:42:45;;;;;;;16.33;12.38;;;5.00;99.90;;;;;;4973374;28;20516;-74
2022/12/30 06:45:12;;;;;;;17.52;13.40;;;5.00;99.90;;;;;;4972418;28;20062;-73
2022/12/30 06:47:39;;;;;;;45.53;25.13;;;5.00;99.90;;;;;;4969154;28;20045;-74
2022/12/30 06:50:06;;;;;;;30.45;16.15;;;4.90;99.90;;;;;;4973034;28;20086;-73
2022/12/30 06:52:33;;;;;;;34.53;20.08;;;5.00;99.90;;;;;;4972299;28;20119;-73
2022/12/30 06:55:00;;;;;;;37.65;23.30;;;5.10;99.90;;;;;;4979792;28;20384;-73
2022/12/30 06:57:27;;;;;;;27.17;18.27;;;5.10;99.90;;;;;;4970232;28;20043;-74
2022/12/30 06:59:53;;;;;;;45.05;26.85;;;5.10;99.90;;;;;;4976570;28;21095;-74
2022/12/30 07:02:20;;;;;;;57.97;30.95;;;5.10;99.90;;;;;;4952130;28;20351;-74
2022/12/30 07:04:47;;;;;;;33.63;15.48;;;5.10;99.90;;;;;;4952562;28;20055;-74
2022/12/30 07:07:13;;;;;;;18.20;12.00;;;5.10;99.90;;;;;;4980273;28;20065;-74
2022/12/30 07:09:40;;;;;;;29.88;15.18;;;5.00;99.90;;;;;;4970468;28;20042;-73
2022/12/30 07:12:07;;;;;;;16.65;12.30;;;5.00;99.90;;;;;;4971255;28;20043;-74
2022/12/30 07:14:33;;;;;;;16.27;12.40;;;4.90;99.90;;;;;;4934276;28;20965;-74
2022/12/30 07:17:00;;;;;;;14.52;12.93;;;4.90;99.90;;;;;;4952569;28;20148;-74
2022/12/30 07:19:27;;;;;;;12.88;11.38;;;4.90;99.90;;;;;;4953898;28;20039;-74
2022/12/30 07:21:54;;;;;;;18.05;12.68;;;4.80;99.90;;;;;;4967842;28;20508;-74
2022/12/30 07:24:20;;;;;;;18.88;13.07;;;4.70;99.90;;;;;;4973924;28;20381;-74
2022/12/30 07:26:47;;;;;;;22.95;14.20;;;4.70;99.90;;;;;;4988747;28;20209;-74
2022/12/30 07:29:14;;;;;;;23.20;12.35;;;4.70;99.90;;;;;;4976912;28;20207;-73
2022/12/30 07:31:40;;;;;;;16.90;12.30;;;4.60;99.90;;;;;;4969557;28;20039;-73
2022/12/30 07:34:08;;;;;;;15.25;11.18;;;4.50;99.90;;;;;;4971597;28;20050;-74
2022/12/30 07:36:34;;;;;;;13.77;10.02;;;4.40;99.90;;;;;;4971348;28;20144;-74
2022/12/30 07:39:01;;;;;;;14.25;9.98;;;4.40;99.90;;;;;;4973977;28;20050;-73
2022/12/30 07:41:28;;;;;;;23.75;11.18;;;4.40;99.90;;;;;;4969470;28;20339;-73
2022/12/30 07:43:55;;;;;;;21.30;11.80;;;4.30;99.90;;;;;;4982522;28;20050;-74
2022/12/30 07:46:21;;;;;;;12.25;10.90;;;4.30;99.90;;;;;;4972837;28;20134;-74
2022/12/30 07:48:48;;;;;;;22.73;11.55;;;4.30;99.90;;;;;;4971154;28;20085;-74
2022/12/30 07:51:16;;;;;;;16.85;10.27;;;4.40;99.90;;;;;;4971479;28;20517;-73
2022/12/30 07:53:43;;;;;;;19.75;11.07;;;4.40;99.90;;;;;;4971733;28;20050;-75
2022/12/30 07:56:12;;;;;;;19.40;11.18;;;4.40;99.90;;;;;;4971677;28;20406;-75
2022/12/30 07:58:40;;;;;;;20.13;14.23;;;4.40;99.90;;;;;;4974700;28;20114;-75
2022/12/30 08:01:09;;;;;;;23.27;11.35;;;4.50;99.90;;;;;;4970995;28;20046;-75
2022/12/30 08:03:36;;;;;;;20.75;12.73;;;4.40;99.90;;;;;;4980307;28;20069;-76
2022/12/30 08:06:08;;;;;;;20.15;10.98;;;4.40;99.90;;;;;;4972926;28;20066;-73
2022/12/30 08:08:36;;;;;;;19.88;10.80;;;4.30;99.90;;;;;;4999803;28;20418;-74
2022/12/30 08:11:04;;;;;;;17.75;11.52;;;4.30;99.90;;;;;;4972426;28;20321;-73
2022/12/30 08:13:33;;;;;;;19.05;10.05;;;4.40;99.90;;;;;;4968997;28;20042;-73
2022/12/30 08:16:08;;;;;;;15.65;8.95;;;4.40;99.90;;;;;;4972299;28;20074;-74
2022/12/30 08:18:35;;;;;;;19.83;8.60;;;4.40;99.90;;;;;;4987836;28;20133;-74
2022/12/30 08:21:10;;;;;;;19.05;9.25;;;4.40;99.90;;;;;;4959245;28;20057;-74
2022/12/30 08:23:38;;;;;;;23.17;9.43;;;4.40;99.90;;;;;;4974014;28;20052;-74
2022/12/30 08:26:06;;;;;;;21.35;9.85;;;4.50;99.90;;;;;;4975747;28;20046;-74
2022/12/30 08:28:33;;;;;;;22.15;10.50;;;4.50;99.90;;;;;;4971776;28;20364;-74
2022/12/30 08:31:04;;;;;;;19.13;9.07;;;4.60;99.90;;;;;;4976021;28;20105;-74
2022/12/30 08:33:31;;;;;;;21.63;11.35;;;4.60;99.90;;;;;;4971313;28;20046;-74
2022/12/30 08:36:03;;;;;;;20.35;10.05;;;4.60;99.90;;;;;;4975577;28;20640;-74
2022/12/30 08:38:30;;;;;;;13.20;11.30;;;4.70;99.90;;;;;;4974930;28;20054;-74
2022/12/30 08:41:30;;;;;;;14.73;11.20;;;4.70;99.90;;;;;;4988448;28;20046;-73
2022/12/30 08:44:00;;;;;;;17.50;12.57;;;4.80;99.90;;;;;;4963391;28;20080;-74
2022/12/30 08:46:28;;;;;;;21.38;12.80;;;4.90;99.90;;;;;;4974437;28;20234;-74
2022/12/30 08:48:55;;;;;;;19.27;13.10;;;5.00;99.90;;;;;;4978490;28;20161;-74
2022/12/30 08:51:22;;;;;;;17.10;14.77;;;5.10;99.90;;;;;;4990046;28;20038;-74
2022/12/30 08:53:48;;;;;;;16.25;14.38;;;5.10;99.90;;;;;;4973897;28;20650;-74
2022/12/30 08:56:21;;;;;;;17.45;15.23;;;5.20;99.90;;;;;;4974483;28;20042;-74
2022/12/30 08:58:49;;;;;;;24.92;15.00;;;5.30;99.90;;;;;;4971718;28;20125;-74
2022/12/30 09:01:21;;;;;;;16.25;14.52;;;5.30;99.90;;;;;;4974645;28;20061;-74
2022/12/30 09:03:49;;;;;;;21.40;16.85;;;5.40;99.90;;;;;;4973086;28;20065;-73
2022/12/30 09:06:19;;;;;;;19.60;15.60;;;5.40;99.90;;;;;;4975562;28;20462;-74
2022/12/30 09:08:46;;;;;;;23.48;18.27;;;5.50;99.90;;;;;;4974578;28;20062;-73
2022/12/30 09:11:20;;;;;;;21.83;17.27;;;5.60;99.90;;;;;;4956929;28;20419;-74
2022/12/30 09:13:47;;;;;;;20.08;17.42;;;5.70;99.90;;;;;;4982033;28;21058;-74
2022/12/30 09:16:15;;;;;;;18.67;16.48;;;5.70;99.90;;;;;;4972844;28;20135;-73
2022/12/30 09:18:42;;;;;;;22.75;15.90;;;5.80;99.90;;;;;;4974927;28;20109;-74
2022/12/30 09:21:09;;;;;;;17.92;15.93;;;5.80;99.90;;;;;;4982871;28;20043;-73
2022/12/30 09:23:36;;;;;;;17.63;15.77;;;5.80;99.90;;;;;;4970600;28;20031;-73
2022/12/30 09:26:05;;;;;;;19.25;15.30;;;5.80;99.90;;;;;;4974177;28;20051;-73
2022/12/30 09:28:32;;;;;;;15.73;14.30;;;5.80;99.90;;;;;;4973229;28;20042;-73
2022/12/30 09:31:00;;;;;;;16.92;15.13;;;5.90;99.90;;;;;;4971974;28;20042;-73
2022/12/30 09:33:26;;;;;;;17.08;15.27;;;5.90;99.90;;;;;;4972632;28;20285;-73
2022/12/30 09:35:53;;;;;;;15.85;14.27;;;6.00;99.90;;;;;;4973872;28;20047;-73
2022/12/30 09:38:20;;;;;;;15.75;14.18;;;6.00;99.90;;;;;;4973661;28;20054;-73
2022/12/30 09:40:57;;;;;;;16.45;14.70;;;6.10;99.90;;;;;;4971129;28;21371;-74
2022/12/30 09:43:49;;;;;;;16.30;14.60;;;6.20;99.90;;;;;;4974095;28;20043;-74
2022/12/30 09:46:32;;;;;;;15.45;14.15;;;6.20;99.90;;;;;;4973315;28;20054;-73
2022/12/30 09:49:03;;;;;;;20.35;15.32;;;6.30;99.90;;;;;;4977405;28;20042;-74
2022/12/30 09:51:36;;;;;;;16.50;14.85;;;6.30;99.90;;;;;;4969939;28;20043;-74
2022/12/30 09:54:10;;;;;;;15.38;14.27;;;6.40;99.90;;;;;;4973906;28;20413;-73
2022/12/30 09:56:39;;;;;;;16.48;15.05;;;6.40;99.90;;;;;;4985612;28;20042;-74
2022/12/30 09:59:13;;;;;;;17.50;15.75;;;6.40;99.90;;;;;;4974531;28;20038;-73
2022/12/30 10:01:43;;;;;;;21.33;15.55;;;6.50;99.90;;;;;;4984111;28;20149;-73
2022/12/30 10:04:15;;;;;;;18.50;15.50;;;6.50;99.90;;;;;;4972399;28;20058;-74
2022/12/30 10:07:23;;;;;;;18.73;15.10;;;6.50;99.90;;;;;;4971200;28;20424;-73
2022/12/30 10:09:56;;;;;;;15.75;14.63;;;6.50;99.90;;;;;;4908261;29;20910;-74
2022/12/30 10:12:39;;;;;;;18.70;15.05;;;6.40;99.90;;;;;;4977171;28;20050;-74
2022/12/30 10:15:13;;;;;;;16.35;14.63;;;6.40;99.90;;;;;;4958118;28;20432;-74
2022/12/30 10:17:40;;;;;;;17.02;15.35;;;6.40;99.90;;;;;;4976934;28;20038;-73
2022/12/30 10:20:36;;;;;;;15.45;14.25;;;6.40;99.90;;;;;;4977363;28;20061;-73
2022/12/30 10:23:39;;;;;;;14.70;13.73;;;6.40;99.90;;;;;;4977640;28;20052;-73
2022/12/30 10:26:22;;;;;;;21.30;14.20;;;6.40;99.90;;;;;;4988287;28;20046;-73
2022/12/30 10:29:19;;;;;;;18.42;15.05;;;6.40;99.90;;;;;;4972038;28;20485;-73
2022/12/30 10:31:48;;;;;;;15.65;14.40;;;6.40;99.90;;;;;;4958270;28;20497;-73
2022/12/30 10:34:23;;;;;;;22.17;15.02;;;6.40;99.90;;;;;;4953576;28;20559;-73
2022/12/30 10:37:05;;;;;;;17.10;15.43;;;6.40;99.90;;;;;;4970910;28;20505;-73
2022/12/30 10:39:35;;;;;;;16.45;14.95;;;6.40;99.90;;;;;;4973764;28;20046;-73
2022/12/30 10:42:43;;;;;;;15.82;14.30;;;6.50;99.90;;;;;;4974107;28;20053;-73
2022/12/30 10:45:23;;;;;;;18.17;14.77;;;6.50;99.90;;;;;;4878869;29;20056;-73
2022/12/30 10:48:09;;;;;;;17.10;15.38;;;6.60;99.90;;;;;;4879819;29;20799;-73
2022/12/30 10:50:45;;;;;;;16.38;15.00;;;6.60;99.90;;;;;;4952209;28;20042;-73
2022/12/30 10:53:17;;;;;;;17.15;15.50;;;6.60;99.90;;;;;;4957381;28;20078;-74
2022/12/30 10:55:49;;;;;;;17.27;15.60;;;6.60;99.90;;;;;;4970578;28;20049;-73
2022/12/30 10:58:39;;;;;;;16.80;15.50;;;6.70;99.90;;;;;;4973227;28;20057;-74
2022/12/30 11:01:14;;;;;;;19.27;16.60;;;6.70;99.90;;;;;;4972721;28;20229;-73
2022/12/30 11:03:52;;;;;;;18.98;16.63;;;6.70;99.90;;;;;;4984915;28;20080;-74
2022/12/30 11:06:27;;;;;;;18.40;16.55;;;6.80;99.90;;;;;;4972077;28;20137;-74
2022/12/30 11:09:13;;;;;;;17.60;16.15;;;6.80;99.90;;;;;;4980284;28;20116;-73
2022/12/30 11:15:03;;;;;;;18.20;16.63;;;6.90;99.90;;;;;;5001689;28;20220;-73
2022/12/30 11:17:41;;;;;;;18.08;16.85;;;7.00;99.90;;;;;;4970458;28;20046;-73
2022/12/30 11:20:13;;;;;;;20.55;17.80;;;7.10;99.90;;;;;;4978274;28;20133;-74
2022/12/30 11:22:52;;;;;;;18.80;17.23;;;7.10;99.90;;;;;;4972610;28;20571;-74
2022/12/30 11:25:33;;;;;;;19.30;17.58;;;7.10;99.90;;;;;;4970095;28;20050;-73
2022/12/30 11:28:03;;;;;;;19.13;17.40;;;7.10;99.90;;;;;;4970867;28;20943;-74
2022/12/30 11:30:36;;;;;;;19.25;17.80;;;7.20;99.90;;;;;;4968828;28;20060;-73
2022/12/30 11:33:06;;;;;;;17.50;16.48;;;7.20;99.90;;;;;;4972060;28;20141;-74
2022/12/30 11:35:45;;;;;;;18.27;16.83;;;7.30;99.90;;;;;;5000452;28;20042;-74
2022/12/30 11:38:35;;;;;;;17.38;16.20;;;7.20;99.90;;;;;;4971299;28;20426;-73
2022/12/30 11:41:17;;;;;;;17.90;16.65;;;7.20;99.90;;;;;;4969076;28;20054;-74
2022/12/30 11:43:48;;;;;;;17.50;15.90;;;7.20;99.90;;;;;;4975042;28;20388;-74
2022/12/30 11:46:18;;;;;;;17.20;15.88;;;7.10;99.90;;;;;;4971222;28;20133;-74
2022/12/30 11:48:54;;;;;;;17.27;15.88;;;7.10;99.90;;;;;;4971058;28;20038;-73
2022/12/30 11:51:24;;;;;;;18.05;16.55;;;7.10;99.90;;;;;;4969175;28;20078;-72
2022/12/30 11:54:10;;;;;;;18.77;16.92;;;7.20;99.90;;;;;;4972796;28;20050;-72
2022/12/30 11:57:14;;;;;;;19.13;17.73;;;7.20;99.90;;;;;;4989025;28;20194;-72
2022/12/30 11:59:47;;;;;;;19.77;18.45;;;7.20;99.90;;;;;;4971869;28;20065;-72
2022/12/30 12:02:23;;;;;;;18.77;17.55;;;7.20;99.90;;;;;;4998571;28;20078;-72
2022/12/30 12:04:50;;;;;;;19.05;17.70;;;7.20;99.90;;;;;;4991979;28;21216;-72
2022/12/30 12:07:17;;;;;;;19.38;18.10;;;7.30;99.90;;;;;;4973243;28;20328;-72
2022/12/30 12:09:50;;;;;;;19.10;18.02;;;7.30;99.90;;;;;;4972989;28;20452;-72
2022/12/30 12:12:20;;;;;;;18.05;17.17;;;7.30;99.90;;;;;;4987727;28;20389;-72
2022/12/30 12:15:03;;;;;;;19.25;18.00;;;7.30;99.90;;;;;;4977724;28;20428;-72
2022/12/30 12:17:41;;;;;;;19.88;18.13;;;7.30;99.90;;;;;;4971808;28;20049;-71
2022/12/30 12:20:27;;;;;;;19.52;18.13;;;7.30;99.90;;;;;;4971621;28;20461;-72
2022/12/30 12:23:00;;;;;;;19.30;18.02;;;7.40;99.90;;;;;;4953812;28;20393;-72
2022/12/30 12:25:33;;;;;;;19.45;17.90;;;7.40;99.90;;;;;;4975110;28;20339;-72
2022/12/30 12:28:00;;;;;;;18.25;16.95;;;7.40;99.90;;;;;;4976733;28;20058;-72
2022/12/30 12:30:44;;;;;;;18.90;17.55;;;7.40;99.90;;;;;;4973423;28;20501;-72
2022/12/30 12:33:26;;;;;;;19.20;17.90;;;7.40;99.90;;;;;;4972733;28;20302;-72
2022/12/30 12:36:10;;;;;;;18.88;17.38;;;7.50;99.90;;;;;;4974798;28;20486;-72
2022/12/30 12:38:53;;;;;;;18.17;17.23;;;7.50;99.90;;;;;;4970068;28;20126;-72
2022/12/30 12:41:39;;;;;;;19.58;17.73;;;7.50;99.90;;;;;;4972522;28;20116;-72
2022/12/30 12:44:12;;;;;;;17.80;16.83;;;7.50;99.90;;;;;;4973506;28;20054;-73
2022/12/30 12:47:03;;;;;;;21.52;19.60;;;7.50;99.90;;;;;;5002079;28;20468;-72
2022/12/30 12:49:57;;;;;;;18.55;17.10;;;7.50;99.90;;;;;;4969217;28;20219;-71
2022/12/30 12:52:44;;;;;;;19.38;16.85;;;7.50;99.90;;;;;;4972171;28;20058;-72
2022/12/30 12:55:21;;;;;;;19.80;18.08;;;7.50;99.90;;;;;;4975098;28;20141;-71
2022/12/30 12:58:09;;;;;;;19.30;17.85;;;7.50;99.90;;;;;;4970396;28;20086;-72
2022/12/30 13:00:53;;;;;;;18.80;17.27;;;7.50;99.90;;;;;;4969780;28;20050;-72
2022/12/30 13:03:31;;;;;;;21.65;17.67;;;7.50;99.90;;;;;;4972126;28;20061;-72
2022/12/30 13:06:04;;;;;;;17.63;16.30;;;7.50;99.90;;;;;;4988223;28;20054;-72
2022/12/30 13:09:21;;;;;;;19.27;17.92;;;7.50;99.90;;;;;;4972807;28;20042;-72
2022/12/30 13:12:17;;;;;;;17.83;16.25;;;7.50;99.90;;;;;;4985412;28;20042;-72
2022/12/30 13:14:51;;;;;;;17.70;16.48;;;7.50;99.90;;;;;;5001370;28;20066;-72
2022/12/30 13:17:41;;;;;;;17.87;16.23;;;7.50;99.90;;;;;;4958999;28;20483;-72
2022/12/30 13:20:22;;;;;;;18.20;16.77;;;7.50;99.90;;;;;;4969290;28;20388;-72
2022/12/30 13:22:49;;;;;;;17.42;16.08;;;7.50;99.90;;;;;;5002464;28;20054;-72
2022/12/30 13:25:22;;;;;;;21.35;17.83;;;7.50;99.90;;;;;;4972233;28;20058;-72
2022/12/30 13:27:52;;;;;;;18.00;16.10;;;7.50;99.90;;;;;;4987259;28;20049;-72
2022/12/30 13:30:21;;;;;;;17.23;15.88;;;7.50;99.90;;;;;;4969817;28;20042;-72
2022/12/30 13:32:51;;;;;;;16.10;14.98;;;7.40;99.90;;;;;;4970157;28;20670;-72
2022/12/30 13:35:31;;;;;;;16.98;15.80;;;7.40;99.90;;;;;;4973250;28;20069;-72
2022/12/30 13:38:16;;;;;;;17.80;15.98;;;7.40;99.90;;;;;;5005390;28;20109;-72
2022/12/30 13:41:13;;;;;;;16.98;15.85;;;7.50;99.90;;;;;;4970093;28;20250;-72
2022/12/30 13:43:45;;;;;;;17.13;15.77;;;7.50;99.90;;;;;;4983567;28;20051;-72
2022/12/30 13:46:21;;;;;;;16.17;15.18;;;7.50;99.90;;;;;;4989033;28;20085;-72
2022/12/30 13:48:59;;;;;;;17.20;15.43;;;7.50;99.90;;;;;;4973923;28;20050;-75
2022/12/30 13:51:28;;;;;;;18.92;17.17;;;7.40;99.90;;;;;;4969159;28;20050;-72
2022/12/30 13:54:07;;;;;;;18.38;16.67;;;7.50;99.90;;;;;;5000575;28;20129;-72
2022/12/30 13:56:41;;;;;;;18.50;17.30;;;7.50;99.90;;;;;;4968691;28;20905;-72